createdAt,value
2024-03-10T00:00:26.490Z,10.72
2024-03-10T00:02:55.989Z,11.32
2024-03-10T00:05:25.037Z,11.40
2024-03-10T00:07:53.841Z,11.77
2024-03-10T00:10:22.422Z,11.73
2024-03-10T00:12:51.611Z,11.17
2024-03-10T00:15:21.310Z,11.51
2024-03-10T00:17:50.855Z,11.30
2024-03-10T00:20:22.674Z,11.05
2024-03-10T00:22:52.706Z,11.47
2024-03-10T00:25:21.836Z,11.04
2024-03-10T00:27:53.305Z,11.23
2024-03-10T00:30:21.921Z,11.95
2024-03-10T00:32:52.479Z,12.31
2024-03-10T00:35:21.085Z,12.34
2024-03-10T00:37:50.633Z,10.97
2024-03-10T00:40:20.717Z,10.43
2024-03-10T00:42:49.246Z,10.33
2024-03-10T00:45:18.328Z,9.84
2024-03-10T00:47:49.266Z,10.33
2024-03-10T00:50:18.103Z,10.50
2024-03-10T00:52:46.646Z,10.54
2024-03-10T00:55:15.090Z,10.22
2024-03-10T00:57:43.593Z,10.13
2024-03-10T01:00:12.616Z,10.37
2024-03-10T01:02:41.878Z,10.13
2024-03-10T01:05:11.182Z,10.56
2024-03-10T01:07:40.119Z,10.02
2024-03-10T01:10:12.651Z,10.31
2024-03-10T01:12:41.415Z,10.06
2024-03-10T01:15:10.444Z,10.19
2024-03-10T01:17:38.982Z,10.11
2024-03-10T01:20:08.722Z,10.13
2024-03-10T01:22:37.359Z,9.83
2024-03-10T01:25:06.503Z,10.01
2024-03-10T01:27:38.209Z,9.99
2024-03-10T01:30:07.336Z,9.87
2024-03-10T01:32:35.985Z,9.67
2024-03-10T01:35:07.007Z,10.13
2024-03-10T01:37:36.131Z,10.47
2024-03-10T01:40:07.208Z,10.89
2024-03-10T01:42:36.017Z,10.24
2024-03-10T01:45:05.379Z,10.24
2024-03-10T01:47:34.210Z,10.32
2024-03-10T01:50:07.176Z,10.14
2024-03-10T01:52:36.540Z,10.05
2024-03-10T01:55:07.740Z,9.92
2024-03-10T01:57:37.825Z,9.92
2024-03-10T02:00:07.152Z,9.79
2024-03-10T02:02:35.741Z,9.98
2024-03-10T02:05:06.169Z,9.69
2024-03-10T02:07:35.172Z,9.77
2024-03-10T02:10:08.428Z,9.25
2024-03-10T02:12:38.717Z,9.42
2024-03-10T02:15:08.051Z,9.86
2024-03-10T02:17:37.922Z,9.93
2024-03-10T02:20:15.448Z,9.40
2024-03-10T02:22:44.956Z,9.08
2024-03-10T02:25:14.320Z,9.53
2024-03-10T02:27:45.873Z,9.51
2024-03-10T02:30:30.678Z,9.77
2024-03-10T02:33:17.765Z,9.34
2024-03-10T02:36:05.044Z,9.79
2024-03-10T02:38:51.943Z,9.49
2024-03-10T02:41:38.908Z,9.50
2024-03-10T02:44:25.941Z,9.52
2024-03-10T02:47:13.338Z,8.96
2024-03-10T02:49:42.597Z,10.12
2024-03-10T02:52:13.550Z,9.97
2024-03-10T02:54:42.104Z,9.62
2024-03-10T02:57:10.606Z,9.39
2024-03-10T02:59:39.097Z,9.81
2024-03-10T03:02:09.931Z,9.83
2024-03-10T03:04:39.919Z,8.76
2024-03-10T03:07:08.409Z,9.54
2024-03-10T03:09:37.099Z,8.87
2024-03-10T03:12:06.157Z,9.40
2024-03-10T03:14:36.506Z,8.55
2024-03-10T03:17:06.404Z,9.55
2024-03-10T03:19:35.189Z,9.37
2024-03-10T03:22:13.528Z,9.68
2024-03-10T03:24:41.949Z,9.84
2024-03-10T03:27:10.658Z,10.13
2024-03-10T03:29:39.214Z,10.58
2024-03-10T03:32:07.754Z,10.73
2024-03-10T03:34:36.364Z,9.97
2024-03-10T03:37:04.924Z,9.61
2024-03-10T03:39:36.513Z,9.87
2024-03-10T03:42:05.118Z,10.30
2024-03-10T03:44:34.033Z,9.67
2024-03-10T03:47:03.157Z,9.70
2024-03-10T03:49:32.249Z,9.76
2024-03-10T03:52:00.753Z,9.66
2024-03-10T03:54:33.861Z,9.85
2024-03-10T03:57:02.588Z,9.86
2024-03-10T03:59:31.089Z,9.81
2024-03-10T04:01:59.994Z,9.88
2024-03-10T04:04:29.227Z,10.01
2024-03-10T04:06:58.242Z,9.98
2024-03-10T04:09:27.190Z,9.40
2024-03-10T04:11:55.736Z,10.00
2024-03-10T04:14:25.018Z,9.10
2024-03-10T04:16:53.906Z,8.68
2024-03-10T04:19:22.490Z,9.28
2024-03-10T04:21:50.989Z,9.28
2024-03-10T04:24:22.902Z,9.57
2024-03-10T04:26:51.381Z,8.28
2024-03-10T04:29:21.860Z,8.88
2024-03-10T04:31:50.450Z,9.18
2024-03-10T04:34:19.061Z,8.85
2024-03-10T04:36:47.597Z,9.03
2024-03-10T04:39:17.225Z,8.98
2024-03-10T04:41:47.034Z,8.72
2024-03-10T04:44:15.579Z,9.15
2024-03-10T04:46:44.036Z,8.77
2024-03-10T04:49:12.802Z,8.51
2024-03-10T04:51:41.316Z,8.90
2024-03-10T04:54:11.154Z,8.86
2024-03-10T04:56:39.662Z,8.64
2024-03-10T04:59:09.029Z,8.32
2024-03-10T05:01:37.577Z,7.28
2024-03-10T05:04:06.658Z,8.52
2024-03-10T05:06:36.092Z,7.83
2024-03-10T05:09:04.769Z,7.33
2024-03-10T05:11:33.646Z,7.87
2024-03-10T05:14:02.534Z,7.04
2024-03-10T05:16:31.232Z,8.13
2024-03-10T05:18:59.657Z,7.91
2024-03-10T05:21:28.288Z,8.34
2024-03-10T05:23:56.766Z,8.03
2024-03-10T05:26:25.516Z,7.95
2024-03-10T05:28:54.042Z,6.82
2024-03-10T05:31:35.042Z,6.92
2024-03-10T05:34:04.859Z,7.52
2024-03-10T05:36:34.366Z,8.16
2024-03-10T05:39:03.519Z,8.23
2024-03-10T05:41:32.239Z,8.31
2024-03-10T05:44:00.852Z,8.69
2024-03-10T05:46:29.394Z,8.07
2024-03-10T05:48:59.480Z,8.34
2024-03-10T05:51:28.353Z,8.06
2024-03-10T05:53:56.834Z,8.02
2024-03-10T05:56:26.416Z,7.32
2024-03-10T05:58:55.392Z,7.80
2024-03-10T06:01:24.864Z,7.49
2024-03-10T06:03:53.632Z,7.77
2024-03-10T06:06:25.000Z,6.99
2024-03-10T06:08:53.526Z,8.21
2024-03-10T06:11:22.096Z,8.02
2024-03-10T06:13:51.311Z,7.17
2024-03-10T06:16:22.290Z,7.45
2024-03-10T06:18:58.558Z,8.21
2024-03-10T06:21:47.525Z,8.38
2024-03-10T12:47:50.605Z,15.24
2024-03-10T12:50:20.075Z,15.14
2024-03-10T12:52:48.807Z,14.13
2024-03-10T12:55:19.430Z,14.54
2024-03-10T12:57:47.954Z,13.97
2024-03-10T13:00:29.165Z,14.35
2024-03-10T13:02:59.559Z,14.18
2024-03-10T13:05:29.644Z,14.65
2024-03-10T13:08:02.384Z,13.65
2024-03-10T13:10:33.820Z,13.17
2024-03-10T13:13:04.220Z,12.69
2024-03-10T13:15:32.908Z,13.68
2024-03-10T13:18:01.657Z,13.44
2024-03-10T13:20:30.242Z,14.66
2024-03-10T13:22:58.803Z,14.54
2024-03-10T13:25:28.417Z,15.02
2024-03-10T13:27:57.021Z,15.20
2024-03-10T13:30:26.549Z,13.47
2024-03-10T13:32:55.212Z,14.82
2024-03-10T13:35:23.865Z,14.91
2024-03-10T13:37:52.584Z,14.69
2024-03-10T13:40:21.455Z,15.42
2024-03-10T13:42:50.950Z,15.50
2024-03-10T13:45:27.829Z,15.04
2024-03-10T13:48:06.331Z,15.16
2024-03-10T13:50:36.977Z,15.80
2024-03-10T13:53:06.673Z,14.45
2024-03-10T13:55:35.412Z,15.20
2024-03-10T13:58:05.570Z,15.12
2024-03-10T14:00:34.262Z,15.17
2024-03-10T14:03:04.173Z,15.10
2024-03-10T14:05:33.328Z,15.28
2024-03-10T14:08:01.946Z,15.08
2024-03-10T14:10:30.822Z,15.35
2024-03-10T14:13:00.072Z,15.73
2024-03-10T14:15:38.352Z,15.22
2024-03-10T14:18:09.626Z,15.25
2024-03-10T14:20:38.681Z,15.21
2024-03-10T14:23:07.479Z,15.12
2024-03-10T14:25:36.238Z,15.66
2024-03-10T14:28:06.686Z,15.81
2024-03-10T14:30:35.210Z,15.78
2024-03-10T14:33:04.888Z,15.98
2024-03-10T14:35:33.834Z,15.46
2024-03-10T14:38:02.647Z,15.70
2024-03-10T14:40:34.278Z,15.36
2024-03-10T14:43:05.270Z,15.60
2024-03-10T14:45:34.038Z,15.90
2024-03-10T14:48:02.618Z,15.81
2024-03-10T14:50:33.653Z,15.90
2024-03-10T14:53:02.915Z,15.94
2024-03-10T14:55:34.914Z,16.16
2024-03-10T14:58:05.576Z,16.02
2024-03-10T15:00:35.880Z,16.21
2024-03-10T15:03:09.927Z,15.97
2024-03-10T15:05:44.158Z,14.56
2024-03-10T15:08:17.413Z,14.34
2024-03-10T15:10:48.515Z,14.16
2024-03-10T15:13:18.912Z,15.11
2024-03-10T15:15:48.220Z,15.39
2024-03-10T15:18:17.097Z,15.18
2024-03-10T15:20:47.601Z,15.76
2024-03-10T15:23:18.493Z,14.70
2024-03-10T15:25:49.235Z,15.30
2024-03-10T15:28:18.594Z,15.32
2024-03-10T15:30:48.154Z,15.52
2024-03-10T15:33:17.763Z,14.48
2024-03-10T15:35:46.698Z,15.12
2024-03-10T15:38:15.837Z,15.39
2024-03-10T15:40:45.263Z,13.95
2024-03-10T15:43:14.649Z,14.34
2024-03-10T15:45:44.567Z,14.12
2024-03-10T15:48:13.833Z,13.89
2024-03-10T15:50:44.033Z,14.24
2024-03-10T15:53:13.606Z,14.44
2024-03-10T15:55:42.200Z,14.45
2024-03-10T15:58:11.516Z,14.86
2024-03-10T16:00:40.194Z,14.74
2024-03-10T16:03:15.814Z,15.09
2024-03-10T16:05:48.516Z,15.39
2024-03-10T16:08:20.170Z,14.54
2024-03-10T16:10:50.279Z,14.98
2024-03-10T16:13:21.637Z,14.18
2024-03-10T16:15:50.245Z,13.74
2024-03-10T16:18:19.496Z,13.96
2024-03-10T16:20:49.459Z,13.72
2024-03-10T16:23:18.302Z,14.99
2024-03-10T16:25:47.755Z,15.05
2024-03-10T16:28:16.398Z,12.91
2024-03-10T16:30:45.250Z,13.74
2024-03-10T16:33:14.326Z,14.24
2024-03-10T16:35:43.401Z,13.66
2024-03-10T16:38:12.180Z,14.02
2024-03-10T16:40:40.756Z,14.54
2024-03-10T16:43:10.319Z,14.23
2024-03-10T16:45:39.694Z,14.11
2024-03-10T16:48:08.408Z,13.83
2024-03-10T16:50:37.243Z,14.22
2024-03-10T16:53:07.650Z,14.63
2024-03-10T16:55:39.446Z,14.93
2024-03-10T16:58:08.688Z,14.28
2024-03-10T17:00:39.438Z,14.68
2024-03-10T17:03:12.839Z,14.80
2024-03-10T17:05:41.550Z,14.71
2024-03-10T17:08:12.940Z,13.99
2024-03-10T17:10:42.371Z,13.67
2024-03-10T17:13:12.100Z,13.48
2024-03-10T17:15:42.443Z,13.57
2024-03-10T17:18:10.970Z,14.45
2024-03-10T17:20:40.599Z,13.61
2024-03-10T17:23:09.224Z,13.27
2024-03-10T17:25:37.889Z,13.63
2024-03-10T17:28:06.723Z,13.06
2024-03-10T17:30:36.090Z,13.30
2024-03-10T17:33:05.672Z,13.78
2024-03-10T17:35:35.363Z,13.45
2024-03-10T17:38:05.717Z,13.69
2024-03-10T17:40:34.546Z,13.83
2024-03-10T17:43:05.734Z,13.61
2024-03-10T17:45:34.828Z,14.34
2024-03-10T17:48:05.026Z,14.32
2024-03-10T17:50:38.856Z,14.67
2024-03-10T17:53:09.048Z,14.39
2024-03-10T17:55:39.657Z,14.53
2024-03-10T17:58:09.082Z,14.17
2024-03-10T18:00:38.745Z,13.98
2024-03-10T18:03:07.190Z,12.94
2024-03-10T18:05:35.780Z,13.25
2024-03-10T18:08:05.878Z,13.24
2024-03-10T18:10:35.399Z,13.10
2024-03-10T18:13:04.123Z,13.20
2024-03-10T18:15:32.615Z,13.86
2024-03-10T18:18:01.368Z,13.73
2024-03-10T18:20:30.000Z,13.27
2024-03-10T18:22:58.502Z,13.41
2024-03-10T18:25:28.068Z,13.77
2024-03-10T18:27:56.530Z,13.34
2024-03-10T18:30:26.411Z,12.83
2024-03-10T18:32:55.919Z,12.80
2024-03-10T18:35:24.654Z,12.38
2024-03-10T18:37:53.154Z,13.26
2024-03-10T18:40:24.013Z,13.08
2024-03-10T18:42:53.206Z,12.37
2024-03-10T18:45:21.717Z,13.29
2024-03-10T18:47:50.275Z,13.01
2024-03-10T18:50:19.975Z,12.90
2024-03-10T18:52:50.469Z,13.23
2024-03-10T18:55:19.201Z,13.27
2024-03-10T18:57:47.803Z,12.13
2024-03-10T19:00:18.038Z,12.08
2024-03-10T19:02:46.688Z,12.51
2024-03-10T19:05:17.564Z,12.33
2024-03-10T19:07:46.695Z,12.40
2024-03-10T19:10:17.175Z,11.86
2024-03-10T19:12:46.148Z,12.15
2024-03-10T19:15:15.269Z,13.06
2024-03-10T19:17:44.669Z,12.40
2024-03-10T19:20:19.434Z,12.67
2024-03-10T19:22:56.001Z,12.88
2024-03-10T19:25:25.901Z,12.68
2024-03-10T19:27:54.473Z,12.80
2024-03-10T19:30:23.255Z,12.61
2024-03-10T19:32:52.341Z,12.87
2024-03-10T19:35:23.513Z,12.94
2024-03-10T19:37:52.562Z,12.04
2024-03-10T19:40:21.201Z,12.90
2024-03-10T19:42:51.404Z,13.16
2024-03-10T19:45:22.052Z,13.24
2024-03-10T19:47:51.059Z,13.29
2024-03-10T19:50:21.133Z,13.10
2024-03-10T19:52:50.765Z,11.25
2024-03-10T19:55:19.759Z,11.60
2024-03-10T19:57:48.598Z,12.18
2024-03-10T20:00:17.700Z,12.31
2024-03-10T20:02:47.601Z,12.47
2024-03-10T20:05:16.520Z,12.54
2024-03-10T20:07:50.062Z,11.44
2024-03-10T20:10:21.086Z,11.63
2024-03-10T20:12:51.230Z,11.91
2024-03-10T20:15:23.272Z,11.54
2024-03-10T20:17:55.419Z,10.71
2024-03-10T20:20:25.044Z,11.61
2024-03-10T20:22:55.806Z,11.91
2024-03-10T20:25:26.065Z,12.36
2024-03-10T20:27:58.100Z,12.40
2024-03-10T20:30:28.034Z,12.36
2024-03-10T20:32:57.642Z,12.29
2024-03-10T20:35:27.121Z,11.57
2024-03-10T20:37:56.626Z,12.27
2024-03-10T20:40:25.206Z,12.66
2024-03-10T20:42:53.771Z,12.70
2024-03-10T20:45:23.448Z,12.38
2024-03-10T20:47:52.298Z,12.56
2024-03-10T20:50:25.033Z,12.63
2024-03-10T20:52:54.792Z,12.25
2024-03-10T20:55:23.445Z,12.80
2024-03-10T20:57:52.126Z,13.04
2024-03-10T21:00:23.036Z,13.02
2024-03-10T21:02:51.917Z,12.89
2024-03-10T21:05:22.753Z,13.07
2024-03-10T21:07:53.744Z,12.59
2024-03-10T21:10:25.295Z,12.76
2024-03-10T21:12:53.884Z,13.03
2024-03-10T21:15:23.989Z,12.99
2024-03-10T21:17:53.742Z,12.98
2024-03-10T21:20:24.468Z,12.94
2024-03-10T21:22:53.659Z,13.04
2024-03-10T21:25:24.331Z,13.12
2024-03-10T21:27:53.843Z,12.88
2024-03-10T21:30:22.407Z,12.68
2024-03-10T21:32:51.331Z,11.97
2024-03-10T21:35:23.436Z,11.72
2024-03-10T21:37:52.845Z,12.32
2024-03-10T21:40:21.653Z,12.55
2024-03-10T21:42:50.331Z,12.46
2024-03-10T21:45:18.865Z,12.70
2024-03-10T21:47:47.487Z,12.94
2024-03-10T21:50:16.535Z,13.15
2024-03-10T21:52:46.117Z,13.23
2024-03-10T21:55:15.485Z,13.12
2024-03-10T21:57:44.563Z,13.01
2024-03-10T22:00:17.655Z,13.05
2024-03-10T22:02:47.823Z,13.05
2024-03-10T22:05:16.813Z,13.17
2024-03-10T22:07:46.877Z,13.17
2024-03-10T22:10:17.143Z,13.25
2024-03-10T22:12:46.448Z,13.17
2024-03-10T22:15:16.022Z,13.25
2024-03-10T22:17:52.940Z,12.91
2024-03-10T22:20:25.731Z,13.21
2024-03-10T22:22:59.016Z,13.36
2024-03-10T22:25:28.239Z,13.41
2024-03-10T22:27:58.256Z,13.24
2024-03-10T22:30:28.783Z,13.25
2024-03-10T22:32:58.339Z,13.04
2024-03-10T22:35:27.482Z,12.98
2024-03-10T22:37:59.794Z,12.47
2024-03-10T22:40:32.355Z,12.11
2024-03-10T22:43:01.233Z,11.77
2024-03-10T22:45:32.757Z,11.66
2024-03-10T22:48:05.366Z,11.73
2024-03-10T22:50:36.204Z,12.02
2024-03-10T22:53:07.175Z,11.90
2024-03-10T22:55:36.426Z,11.55
2024-03-10T22:58:05.642Z,10.48
2024-03-10T23:00:35.469Z,10.68
2024-03-10T23:03:07.501Z,10.57
2024-03-10T23:05:36.534Z,10.42
2024-03-10T23:08:06.900Z,11.00
2024-03-10T23:10:39.228Z,11.46
2024-03-10T23:13:09.876Z,11.79
2024-03-10T23:15:38.645Z,12.03
2024-03-10T23:18:12.591Z,12.14
2024-03-10T23:20:42.050Z,12.32
2024-03-10T23:23:10.903Z,12.46
2024-03-10T23:25:39.606Z,12.62
2024-03-10T23:28:09.147Z,12.49
2024-03-10T23:30:39.024Z,12.39
2024-03-10T23:33:07.950Z,11.96
2024-03-10T23:35:37.397Z,11.74
2024-03-10T23:38:07.051Z,11.90
2024-03-10T23:40:36.002Z,11.98
2024-03-10T23:43:04.689Z,11.96
2024-03-10T23:45:34.063Z,11.47
2024-03-10T23:48:03.196Z,11.55
2024-03-10T23:50:32.138Z,11.89
2024-03-10T23:53:02.299Z,12.14
2024-03-10T23:55:43.557Z,11.80
2024-03-10T23:58:15.119Z,12.10
